• Join FlightAware (Why Join?)
  • Login
  • US Flag 
08:00AM EST


 

Airport Tracker/Info


-or-


 

Live Flight TrackerFlight Track Log ✈ ANA531 ✈ 11-May-2013 ✈ RJTT / HND - RJOT / TAK

Flight Track Log - Related Links

Times and Time Zones

All times are in EDT time to prevent confusion due to time zone crossing. See the ANA531 flight status page for this flight to view local times or setup timezone preferences in your user account.

Time Position Orientation Groundspeed Altitude Reporting Facility
EDT Latitude Longitude Course Direction KTS MPH feet Rate Location/Type
06:49PM 35.4512 139.2921 256° West  Level Estimated
06:50PM 35.4257 139.1704 256° West  Level Estimated
06:51PM 35.4000 139.0487 256° West  Level Estimated
06:52PM 35.3741 138.9272 255° West  Level Estimated
06:53PM 35.3482 138.8057 255° West  Level Estimated
06:54PM 35.3222 138.6843 255° West  Level Estimated
06:55PM 35.2960 138.5629 255° West  Level Estimated
06:56PM 35.2697 138.4417 255° West  Level Estimated
06:57PM 35.2433 138.3205 255° West  Level Estimated
06:58PM 35.2167 138.1994 255° West  Level Estimated
06:59PM 35.1901 138.0784 255° West  Level Estimated
07:00PM 35.1633 137.9575 255° West  Level Estimated
07:01PM 35.1364 137.8367 255° West  Level Estimated
07:02PM 35.1094 137.7159 255° West  Level Estimated
07:03PM 35.0822 137.5952 255° West  Level Estimated
07:04PM 35.0550 137.4746 255° West  Level Estimated
07:05PM 35.0276 137.3540 255° West  Level Estimated
07:06PM 35.0001 137.2336 254° West  Level Estimated
07:07PM 34.9725 137.1132 254° West  Level Estimated
07:08PM 34.9448 136.9929 254° West  Level Estimated
07:09PM 34.9169 136.8727 254° West  Level Estimated
07:10PM 34.8889 136.7526 254° West  Level Estimated
07:11PM 34.8608 136.6326 254° West  Level Estimated
07:12PM 34.8326 136.5126 254° West  Level Estimated
07:13PM 34.8043 136.3927 254° West  Level Estimated
07:14PM 34.7759 136.2729 254° West  Level Estimated
07:15PM 34.7473 136.1532 254° West  Level Estimated
07:16PM 34.7186 136.0336 254° West  Level Estimated
07:17PM 34.6898 135.9141 254° West  Level Estimated
07:18PM 34.6609 135.7946 254° West  Level Estimated
07:19PM 34.6319 135.6752 254° West  Level Estimated
07:20PM 34.6028 135.5559 254° West  Level Estimated
07:21PM 34.5735 135.4367 253° West  Level Estimated
07:22PM 34.5441 135.3176 253° West  Level Estimated
07:23PM 34.5146 135.1986 253° West  Level Estimated
07:24PM 34.4851 135.0796 253° West  Level Estimated
07:25PM 34.4553 134.9607 253° West  Level Estimated
07:26PM 34.4255 134.8419 253° West  Level Estimated
07:27PM 34.3955 134.7232 253° West  Level Estimated
07:28PM 34.3655 134.6046 253° West  Level Estimated
07:29PM 34.3353 134.4861 253° West  Level Estimated
07:30PM 34.3050 134.3676 253° West  Level Estimated
07:31PM 34.2746 134.2493 253° West  Level Estimated
07:32PM 34.2441 134.1310 253° West  Level Estimated
07:33PM 34.2142 134.0156 253° West  Level Estimated
07:34PM 34.2142 134.0156 228° Southwest  Level Estimated
07:35PM 34.2142 134.0156 228° Southwest  Level Estimated
07:36PM 34.2142 134.0156 228° Southwest  Level Estimated
07:37PM 34.2142 134.0156 228° Southwest  Level Estimated
07:38PM 34.2142 134.0156 228° Southwest  Level Estimated
07:39PM 34.2142 134.0156 228° Southwest  Level Estimated
07:40PM 34.2142 134.0156 228° Southwest  Level Estimated
07:41PM 34.2142 134.0156 228° Southwest  Level Estimated
07:42PM 34.2142 134.0156 228° Southwest  Level Estimated
07:43PM 34.2142 134.0156 228° Southwest  Level Estimated
07:44PM 34.2142 134.0156 228° Southwest  Level Estimated
07:45PM 34.2142 134.0156 228° Southwest  Level Estimated
07:46PM 34.2142 134.0156 228° Southwest  Level Estimated
07:47PM 34.2142 134.0156 228° Southwest  Level Estimated
07:48PM 34.2142 134.0156 228° Southwest  Level Estimated
07:49PM 34.2142 134.0156 228° Southwest  Level Estimated